Time;durP1;ratioP1;P1;durP2;ratioP2;P2;SDS_P1;SDS_P2;PMS_P1;PMS_P2;Temp;Humidity;BMP_temperature;BMP_pressure;BME280_temperature;BME280_humidity;BME280_pressure;Samples;Min_cycle;Max_cycle;Signal;HPM_P1;HPM_P2
2022/03/20 00:02:55;;;;;;;18.70;10.77;;;;;;;2.11;100.00;102790.81;5953698;29;20162;-92
2022/03/20 00:05:58;;;;;;;16.65;9.45;;;;;;;2.07;100.00;102790.00;5944794;29;20073;-92
2022/03/20 00:09:00;;;;;;;20.23;10.63;;;;;;;2.09;100.00;102790.00;5957864;29;20065;-92
2022/03/20 00:12:02;;;;;;;18.63;9.98;;;;;;;2.17;100.00;102780.56;5974164;29;20051;-92
2022/03/20 00:15:06;;;;;;;20.73;12.15;;;;;;;2.08;100.00;102772.94;5957863;29;20131;-92
2022/03/20 00:18:09;;;;;;;18.20;10.45;;;;;;;2.14;100.00;102772.91;5972863;29;20372;-92
2022/03/20 00:21:11;;;;;;;18.40;10.38;;;;;;;2.12;100.00;102772.06;5973927;29;20077;-92
2022/03/20 00:24:13;;;;;;;14.77;9.70;;;;;;;2.14;100.00;102775.47;5966847;29;20046;-92
2022/03/20 00:27:16;;;;;;;18.38;10.57;;;;;;;2.03;100.00;102772.97;5978417;29;20045;-92
2022/03/20 00:30:18;;;;;;;22.05;11.63;;;;;;;2.07;100.00;102764.44;5981024;29;20046;-92
2022/03/20 00:33:22;;;;;;;23.65;11.88;;;;;;;2.07;100.00;102761.03;5961545;29;20591;-92
2022/03/20 00:36:24;;;;;;;21.15;11.70;;;;;;;2.07;100.00;102754.22;5962016;29;20055;-93
2022/03/20 00:39:26;;;;;;;17.25;11.10;;;;;;;2.09;100.00;102752.50;5977423;29;20050;-92
2022/03/20 00:42:29;;;;;;;22.48;11.27;;;;;;;2.03;100.00;102750.00;5971668;29;20049;-92
2022/03/20 00:45:33;;;;;;;22.38;11.93;;;;;;;2.12;100.00;102741.41;5975896;29;20135;-92
2022/03/20 00:48:37;;;;;;;23.02;11.50;;;;;;;2.06;100.00;102744.00;5984757;29;20081;-91
2022/03/20 00:51:39;;;;;;;22.48;11.35;;;;;;;2.23;100.00;102744.72;5992437;29;20054;-91
2022/03/20 00:54:42;;;;;;;18.88;11.27;;;;;;;2.09;100.00;102744.84;5979173;29;20050;-90
2022/03/20 00:57:44;;;;;;;17.30;10.50;;;;;;;2.05;100.00;102739.78;5972529;29;20027;-91
2022/03/20 01:00:45;;;;;;;16.83;10.98;;;;;;;2.09;100.00;102733.78;5960517;29;20050;-90
2022/03/20 01:03:48;;;;;;;19.80;11.00;;;;;;;1.93;100.00;102735.59;5986575;29;20051;-91
2022/03/20 01:06:50;;;;;;;20.25;10.63;;;;;;;2.03;100.00;102729.56;6146346;23;20053;-90
2022/03/20 01:09:51;;;;;;;19.58;10.68;;;;;;;2.00;100.00;102731.28;6006466;29;20075;-92
2022/03/20 01:12:56;;;;;;;19.05;11.20;;;;;;;1.92;100.00;102729.66;6006352;29;20152;-92
2022/03/20 01:15:58;;;;;;;19.88;11.48;;;;;;;1.76;100.00;102724.66;5992785;29;20065;-92
2022/03/20 01:19:00;;;;;;;21.05;11.63;;;;;;;1.70;100.00;102728.94;5997220;29;20244;-92
2022/03/20 01:22:01;;;;;;;20.50;11.57;;;;;;;1.82;100.00;102722.91;6009674;29;20129;-92
2022/03/20 01:25:07;;;;;;;16.67;11.25;;;;;;;1.77;100.00;102719.53;6008526;29;20077;-92
2022/03/20 01:28:10;;;;;;;16.80;10.95;;;;;;;1.75;100.00;102715.31;5983606;29;20645;-92
2022/03/20 01:31:16;;;;;;;20.73;10.52;;;;;;;1.57;100.00;102712.00;5998182;29;20057;-92
2022/03/20 01:34:18;;;;;;;26.63;13.15;;;;;;;1.49;100.00;102704.41;5997795;29;20054;-92
2022/03/20 01:37:20;;;;;;;23.90;12.18;;;;;;;1.44;100.00;102706.13;5988830;29;20052;-92
2022/03/20 01:40:22;;;;;;;20.33;12.90;;;;;;;1.44;100.00;102702.72;5994746;29;20056;-92
2022/03/20 01:43:23;;;;;;;19.90;12.27;;;;;;;1.53;100.00;102694.16;5999714;29;20064;-92
2022/03/20 01:46:26;;;;;;;18.40;11.40;;;;;;;1.62;100.00;102689.84;6000607;29;20582;-92
2022/03/20 01:49:28;;;;;;;17.92;10.48;;;;;;;1.68;100.00;102688.97;6014351;29;20038;-92
2022/03/20 01:52:32;;;;;;;19.38;11.10;;;;;;;1.50;100.00;102675.47;6001700;29;20065;-92
2022/03/20 01:55:34;;;;;;;21.88;12.25;;;;;;;1.43;100.00;102672.97;5972829;29;20051;-92
2022/03/20 01:58:38;;;;;;;26.42;13.57;;;;;;;1.36;100.00;102672.13;6006706;29;20057;-92
2022/03/20 02:01:40;;;;;;;21.83;12.05;;;;;;;1.48;100.00;102673.78;6050197;23;20050;-91
2022/03/20 02:04:43;;;;;;;23.30;11.52;;;;;;;1.41;100.00;102660.19;6007949;29;20077;-90
2022/03/20 02:07:45;;;;;;;23.70;12.93;;;;;;;1.27;100.00;102657.75;5998243;29;20049;-90
2022/03/20 02:10:47;;;;;;;25.08;12.60;;;;;;;1.26;100.00;102660.31;6005179;29;20049;-90
2022/03/20 02:13:49;;;;;;;21.58;12.60;;;;;;;1.16;100.00;102646.75;5988180;29;20058;-90
2022/03/20 02:16:52;;;;;;;24.00;13.48;;;;;;;1.05;100.00;102654.47;5990969;29;20050;-90
2022/03/20 02:19:56;;;;;;;25.35;12.73;;;;;;;1.16;100.00;102640.81;5996477;29;20048;-90
2022/03/20 02:22:58;;;;;;;22.35;13.13;;;;;;;1.03;100.00;102640.88;5981091;29;20145;-90
2022/03/20 02:26:03;;;;;;;21.95;12.50;;;;;;;0.87;100.00;102639.25;5996879;29;20078;-90
2022/03/20 02:29:06;;;;;;;21.70;11.93;;;;;;;0.99;100.00;102635.78;6008396;29;20092;-90
2022/03/20 02:32:09;;;;;;;20.95;13.70;;;;;;;0.93;100.00;102636.66;5971822;29;20668;-90
2022/03/20 02:35:15;;;;;;;21.73;12.50;;;;;;;0.99;100.00;102640.88;6009071;29;20400;-90
2022/03/20 02:38:20;;;;;;;20.90;12.85;;;;;;;0.96;100.00;102635.81;6002117;29;20050;-90
2022/03/20 02:41:23;;;;;;;20.67;12.43;;;;;;;1.01;100.00;102634.91;6010545;29;20057;-90
2022/03/20 02:45:03;;;;;;;22.55;12.98;;;;;;;0.92;100.00;102629.00;5982553;29;20121;-90
2022/03/20 02:48:06;;;;;;;23.77;12.43;;;;;;;0.77;100.00;102624.84;5929636;30;20073;-90
2022/03/20 02:51:08;;;;;;;20.48;13.00;;;;;;;0.75;100.00;102632.50;5936636;29;20320;-90
2022/03/20 02:54:12;;;;;;;30.52;14.35;;;;;;;0.67;100.00;102628.28;5934919;30;20058;-90
2022/03/20 02:57:14;;;;;;;24.10;13.40;;;;;;;0.63;100.00;102619.81;5939489;29;20571;-90
2022/03/20 03:00:21;;;;;;;22.42;13.02;;;;;;;0.63;100.00;102620.66;5947132;29;20490;-90
2022/03/20 03:03:23;;;;;;;24.75;13.02;;;;;;;0.64;100.00;102617.25;5927034;30;20522;-90
2022/03/20 03:06:25;;;;;;;21.73;12.40;;;;;;;0.73;100.00;102610.44;5939531;30;20047;-90
2022/03/20 03:12:47;;;;;;;23.13;13.32;;;;;;;0.56;100.00;102608.78;5935393;30;20102;-90
2022/03/20 03:15:52;;;;;;;27.10;14.15;;;;;;;0.49;100.00;102607.09;5924139;29;20043;-90
2022/03/20 03:18:54;;;;;;;24.98;13.43;;;;;;;0.58;100.00;102609.63;5984083;29;20050;-90
2022/03/20 03:21:56;;;;;;;22.20;12.73;;;;;;;0.49;100.00;102598.63;6002708;29;20531;-90
2022/03/20 03:24:58;;;;;;;22.73;13.05;;;;;;;0.45;100.00;102595.25;6008629;29;20141;-90
2022/03/20 03:28:00;;;;;;;23.52;13.43;;;;;;;0.48;100.00;102587.59;6002151;29;20046;-90
2022/03/20 03:31:08;;;;;;;24.95;14.10;;;;;;;0.45;100.00;102586.72;5981464;29;20057;-90
2022/03/20 03:37:32;;;;;;;19.75;13.13;;;;;;;0.50;100.00;102592.66;6004990;29;20038;-90
2022/03/20 03:40:34;;;;;;;22.17;13.88;;;;;;;0.66;100.00;102591.75;6007956;29;20038;-91
2022/03/20 03:43:37;;;;;;;26.30;13.55;;;;;;;0.61;100.00;102581.56;5978519;29;20488;-90
2022/03/20 03:46:39;;;;;;;20.67;12.45;;;;;;;0.52;100.00;102581.63;6003440;29;20038;-90
2022/03/20 03:49:41;;;;;;;26.67;14.60;;;;;;;0.59;100.00;102579.91;5991991;29;20129;-90
2022/03/20 03:52:43;;;;;;;26.33;13.07;;;;;;;0.59;100.00;102567.16;5993628;29;20397;-90
2022/03/20 03:55:48;;;;;;;22.02;13.23;;;;;;;0.69;100.00;102563.69;5994504;29;20125;-91
2022/03/20 03:58:50;;;;;;;23.55;12.98;;;;;;;0.60;100.00;102561.22;6009387;29;20086;-90
2022/03/20 04:01:52;;;;;;;27.27;12.98;;;;;;;0.60;100.00;102546.78;5998938;29;20042;-91
2022/03/20 04:04:54;;;;;;;23.50;12.05;;;;;;;0.75;100.00;102539.91;6014006;29;20052;-90
2022/03/20 04:07:56;;;;;;;22.55;13.43;;;;;;;0.68;100.00;102525.50;5999312;29;20042;-90
2022/03/20 04:10:58;;;;;;;23.35;13.38;;;;;;;0.78;100.00;102527.13;6023411;29;20404;-90
2022/03/20 04:14:00;;;;;;;24.25;14.10;;;;;;;0.50;100.00;102537.47;5980329;29;20485;-90
2022/03/20 04:17:05;;;;;;;26.35;13.57;;;;;;;0.35;100.00;102535.00;5979462;29;20052;-90
2022/03/20 04:20:09;;;;;;;21.65;13.00;;;;;;;0.40;100.00;102538.38;6012273;29;20042;-90
2022/03/20 04:26:33;;;;;;;24.67;13.32;;;;;;;0.26;100.00;102525.69;6004341;29;20041;-90
2022/03/20 04:29:35;;;;;;;23.25;13.50;;;;;;;0.19;100.00;102531.66;6003264;29;20229;-90
2022/03/20 04:32:37;;;;;;;20.98;13.00;;;;;;;0.11;100.00;102524.03;6003121;29;20711;-90
2022/03/20 04:35:40;;;;;;;22.75;13.70;;;;;;;0.13;100.00;102534.22;6000399;29;20434;-90
2022/03/20 04:38:44;;;;;;;27.10;14.07;;;;;;;0.16;100.00;102536.75;6002651;29;20150;-90
2022/03/20 04:41:46;;;;;;;22.65;13.35;;;;;;;0.19;100.00;102524.00;6007484;29;20559;-90
2022/03/20 04:44:48;;;;;;;25.00;12.85;;;;;;;0.08;100.00;102521.50;5993202;29;20500;-90
2022/03/20 05:01:11;;;;;;;24.63;13.55;;;;;;;-0.02;100.00;102540.22;6003703;29;20042;-90
2022/03/20 05:04:14;;;;;;;22.02;13.18;;;;;;;-0.11;100.00;102532.56;5992891;29;20050;-90
2022/03/20 05:07:16;;;;;;;22.50;13.50;;;;;;;-0.20;100.00;102515.63;6003213;29;20046;-90
2022/03/20 05:13:38;;;;;;;24.52;13.90;;;;;;;-0.15;100.00;102511.41;5993650;29;20049;-90
2022/03/20 05:16:40;;;;;;;22.13;12.57;;;;;;;-0.16;100.00;102519.84;6009251;29;20039;-90
2022/03/20 05:19:42;;;;;;;23.95;12.77;;;;;;;-0.16;100.00;102511.38;5987765;29;20065;-90
2022/03/20 05:22:46;;;;;;;21.40;13.00;;;;;;;-0.23;100.00;102513.94;5979692;29;20053;-90
2022/03/20 05:25:48;;;;;;;24.90;13.23;;;;;;;-0.07;100.00;102506.28;5978991;29;20220;-90
2022/03/20 05:28:50;;;;;;;25.48;13.55;;;;;;;-0.17;100.00;102514.75;6007807;29;20046;-90
2022/03/20 05:31:53;;;;;;;21.40;12.77;;;;;;;-0.25;100.00;102512.22;6002229;29;20072;-90
2022/03/20 05:34:55;;;;;;;23.30;14.68;;;;;;;-0.12;100.00;102508.84;6009062;29;20468;-90
2022/03/20 05:37:56;;;;;;;25.35;13.40;;;;;;;-0.08;100.00;102500.31;6001005;29;20056;-90
2022/03/20 05:44:22;;;;;;;23.10;13.23;;;;;;;-0.16;100.00;102506.28;6007996;29;20053;-90
2022/03/20 05:47:23;;;;;;;25.98;13.77;;;;;;;-0.26;100.00;102496.13;6008897;29;20053;-90
2022/03/20 05:50:25;;;;;;;22.35;13.43;;;;;;;-0.13;100.00;102501.19;6005796;29;20073;-90
2022/03/20 05:53:27;;;;;;;29.50;14.20;;;;;;;-0.22;100.00;102507.16;5992049;29;20064;-90
2022/03/20 05:59:53;;;;;;;22.60;12.55;;;;;;;0.02;100.00;102507.94;5996891;29;20072;-90
2022/03/20 06:02:55;;;;;;;27.23;14.65;;;;;;;-0.02;100.00;102494.38;5993313;29;20050;-90
2022/03/20 06:05:57;;;;;;;24.48;13.73;;;;;;;-0.03;100.00;102490.13;6010473;29;20057;-90
2022/03/20 06:08:59;;;;;;;24.63;13.55;;;;;;;0.06;100.00;102504.53;5996151;29;20045;-90
2022/03/20 06:12:01;;;;;;;21.42;13.18;;;;;;;0.08;100.00;102505.38;5999541;29;20045;-90
2022/03/20 06:15:04;;;;;;;26.42;13.55;;;;;;;0.20;100.00;102502.81;5993807;29;20046;-90
2022/03/20 06:18:07;;;;;;;21.92;13.40;;;;;;;0.20;100.00;102492.63;6008438;29;20230;-90
2022/03/20 06:21:09;;;;;;;20.38;13.50;;;;;;;0.27;100.00;102486.63;6005934;29;20148;-90
2022/03/20 06:24:11;;;;;;;25.08;12.60;;;;;;;0.25;100.00;102483.25;5989219;29;20121;-91
2022/03/20 06:27:13;;;;;;;25.75;14.15;;;;;;;0.30;100.00;102493.41;5989766;29;20138;-90
2022/03/20 06:30:17;;;;;;;24.17;13.20;;;;;;;0.43;100.00;102487.41;5991311;29;20104;-90
2022/03/20 06:33:19;;;;;;;21.60;12.80;;;;;;;0.47;100.00;102489.06;5988408;29;20158;-90
2022/03/20 06:36:20;;;;;;;23.05;13.65;;;;;;;0.48;100.00;102485.69;5989082;29;20038;-90
2022/03/20 06:39:23;;;;;;;25.80;13.07;;;;;;;0.64;100.00;102497.47;5985577;29;20046;-90
2022/03/20 06:42:26;;;;;;;25.38;13.73;;;;;;;0.70;95.95;102495.75;6003223;29;20053;-91
2022/03/20 06:45:28;;;;;;;22.65;13.13;;;;;;;0.68;100.00;102492.38;6002676;29;20050;-91
2022/03/20 06:48:31;;;;;;;25.20;13.90;;;;;;;0.83;94.08;102482.91;5993611;29;20049;-90
2022/03/20 06:51:33;;;;;;;23.58;13.48;;;;;;;0.84;96.67;102483.75;5993909;29;20207;-90
2022/03/20 06:54:35;;;;;;;23.73;13.73;;;;;;;0.98;93.63;102478.56;5994371;29;20137;-90
2022/03/20 06:57:46;;;;;;;25.23;14.25;;;;;;;1.03;93.43;102464.91;6013742;29;20065;-90
2022/03/20 07:00:48;;;;;;;23.75;13.52;;;;;;;1.19;91.71;102459.69;5973099;29;20065;-91
2022/03/20 07:03:52;;;;;;;25.40;13.27;;;;;;;1.18;88.31;102461.41;5993151;29;20065;-90
2022/03/20 07:06:54;;;;;;;28.05;14.70;;;;;;;1.22;88.42;102459.69;6007567;29;20492;-90
2022/03/20 07:09:56;;;;;;;26.13;14.00;;;;;;;1.24;89.78;102452.84;5992192;29;20044;-90
2022/03/20 07:16:21;;;;;;;24.33;14.07;;;;;;;1.33;89.12;102447.66;5996504;29;20099;-90
2022/03/20 07:19:23;;;;;;;25.70;13.90;;;;;;;1.44;85.76;102442.44;6000707;29;20037;-91
2022/03/20 07:22:26;;;;;;;22.70;12.73;;;;;;;1.55;88.08;102437.25;6016529;29;20061;-91
2022/03/20 07:32:27;;;;;;;24.73;14.02;;;;;;;1.65;82.43;102423.53;5991399;29;20071;-91
2022/03/20 07:35:32;;;;;;;27.45;14.25;;;;;;;1.75;85.82;102431.94;5993559;29;20043;-91
2022/03/20 07:38:40;;;;;;;29.15;13.85;;;;;;;1.81;85.38;102426.72;5982261;29;20051;-90
2022/03/20 07:41:42;;;;;;;25.17;13.73;;;;;;;1.86;82.00;102430.06;5987937;29;20051;-91
2022/03/20 07:44:45;;;;;;;23.30;12.82;;;;;;;1.96;82.51;102425.72;5945463;29;20118;-91
2022/03/20 07:47:47;;;;;;;24.75;14.27;;;;;;;2.01;81.50;102429.88;5979807;29;20131;-91
2022/03/20 07:50:53;;;;;;;26.75;15.05;;;;;;;2.02;82.67;102433.31;5969209;29;20047;-90
2022/03/20 07:53:57;;;;;;;26.27;13.45;;;;;;;2.16;82.30;102441.63;5974560;29;20506;-91
2022/03/20 07:57:03;;;;;;;29.45;14.02;;;;;;;2.26;81.72;102435.56;5995115;29;20069;-90
2022/03/20 08:00:11;;;;;;;27.80;15.13;;;;;;;2.44;78.86;102419.09;5989079;29;20027;-91
2022/03/20 08:03:16;;;;;;;24.95;14.68;;;;;;;2.49;79.17;102442.06;5973002;29;20027;-91
2022/03/20 08:06:18;;;;;;;25.33;14.93;;;;;;;2.52;79.16;102430.06;5992327;29;20046;-91
2022/03/20 08:09:27;;;;;;;24.83;14.25;;;;;;;2.59;80.35;102420.59;5974436;29;20043;-91
2022/03/20 08:12:29;;;;;;;26.90;15.27;;;;;;;2.68;78.10;102435.78;5979345;29;20102;-91
2022/03/20 08:15:43;;;;;;;27.35;14.80;;;;;;;2.77;76.84;102429.69;6027471;23;20054;-92
2022/03/20 08:18:49;;;;;;;25.88;13.85;;;;;;;2.92;75.36;102424.31;6040254;24;20052;-92
2022/03/20 08:21:52;;;;;;;26.40;14.80;;;;;;;2.95;73.68;102434.50;6029412;29;20128;-92
2022/03/20 08:24:54;;;;;;;28.95;16.05;;;;;;;2.96;73.95;102417.47;6043764;23;20050;-92
2022/03/20 08:28:00;;;;;;;28.50;15.65;;;;;;;2.99;75.17;102419.97;6014688;29;20109;-92
2022/03/20 08:31:03;;;;;;;27.58;15.68;;;;;;;2.99;75.94;102417.41;6029519;29;20045;-92
2022/03/20 08:34:05;;;;;;;28.80;16.08;;;;;;;3.09;75.10;102423.22;6009749;29;20072;-92
2022/03/20 08:37:10;;;;;;;29.55;15.55;;;;;;;3.20;73.95;102399.09;6010619;29;20042;-92
2022/03/20 08:40:21;;;;;;;28.83;16.23;;;;;;;3.30;72.53;102398.94;5990500;29;20504;-92
2022/03/20 08:43:26;;;;;;;28.50;15.88;;;;;;;3.38;73.53;102402.19;6018549;29;20053;-92
2022/03/20 08:50:08;;;;;;;23.00;14.25;;;;;;;3.49;73.32;102395.16;5982177;29;20043;-92
2022/03/20 08:53:20;;;;;;;30.23;15.53;;;;;;;3.67;72.63;102381.16;5984291;29;20050;-92
2022/03/20 08:56:25;;;;;;;26.40;15.05;;;;;;;3.81;70.60;102386.00;6040537;24;20345;-92
2022/03/20 08:59:27;;;;;;;26.63;16.17;;;;;;;3.88;70.51;102377.31;6439716;23;20042;-92
2022/03/20 09:02:29;;;;;;;27.13;15.45;;;;;;;3.92;70.17;102373.81;6015995;24;20079;-92
2022/03/20 09:05:33;;;;;;;27.60;15.32;;;;;;;4.11;71.07;102369.13;6123377;24;20086;-91
2022/03/20 09:08:35;;;;;;;27.67;15.45;;;;;;;4.14;70.80;102363.09;6085900;24;20073;-91
2022/03/20 09:11:45;;;;;;;26.58;15.70;;;;;;;4.23;68.86;102363.75;5993128;29;20047;-91
2022/03/20 09:14:47;;;;;;;25.95;15.15;;;;;;;4.36;69.12;102358.31;5990247;29;20104;-91
2022/03/20 09:21:29;;;;;;;26.38;14.93;;;;;;;4.67;68.24;102358.41;6022398;29;20051;-91
2022/03/20 09:24:32;;;;;;;27.67;15.85;;;;;;;4.80;65.34;102364.94;6002853;29;20051;-91
2022/03/20 09:27:40;;;;;;;27.90;15.75;;;;;;;4.94;67.52;102357.75;6011768;29;20046;-91
2022/03/20 09:30:42;;;;;;;25.65;14.68;;;;;;;5.06;64.51;102355.72;6019639;29;20049;-94
2022/03/20 09:33:45;;;;;;;29.75;15.55;;;;;;;5.11;66.05;102353.88;6018553;29;20126;-94
2022/03/20 09:36:48;;;;;;;28.52;15.60;;;;;;;5.17;66.47;102348.59;6028302;29;20042;-94
2022/03/20 09:39:53;;;;;;;27.70;15.50;;;;;;;5.32;64.12;102349.91;6017831;29;20037;-93
2022/03/20 09:42:55;;;;;;;27.02;14.70;;;;;;;5.33;63.09;102344.72;5992504;29;20504;-94
2022/03/20 09:45:58;;;;;;;27.02;16.02;;;;;;;5.40;63.58;102347.97;6021438;29;20048;-93
2022/03/20 09:49:07;;;;;;;26.35;16.23;;;;;;;5.55;63.94;102344.13;6007177;29;20044;-93
2022/03/20 09:52:25;;;;;;;25.52;15.02;;;;;;;5.69;62.62;102336.00;5999588;29;20047;-93
2022/03/20 09:55:27;;;;;;;25.85;15.73;;;;;;;5.84;61.52;102345.84;6004035;29;20073;-94
2022/03/20 09:58:30;;;;;;;22.67;14.40;;;;;;;5.92;61.42;102337.91;6008622;29;20367;-93
2022/03/20 10:01:35;;;;;;;30.23;15.77;;;;;;;6.13;59.18;102347.53;6017845;23;20046;-93
2022/03/20 10:04:59;;;;;;;26.40;15.50;;;;;;;6.24;60.13;102337.78;6004823;29;20038;-93
2022/03/20 10:08:13;;;;;;;25.88;14.35;;;;;;;6.27;61.28;102341.16;5987077;29;20410;-93
2022/03/20 10:11:16;;;;;;;27.52;14.77;;;;;;;6.40;59.64;102338.13;5983913;29;20054;-94
2022/03/20 10:14:29;;;;;;;27.13;14.98;;;;;;;6.47;57.60;102342.19;5982912;29;20105;-94
2022/03/20 10:17:37;;;;;;;27.02;15.70;;;;;;;6.61;60.13;102331.44;5984976;29;20113;-94
2022/03/20 10:20:46;;;;;;;25.42;14.35;;;;;;;6.72;57.91;102340.53;5969858;29;20061;-94
2022/03/20 10:23:48;;;;;;;23.83;14.50;;;;;;;6.78;58.42;102336.03;5953020;29;20039;-94
2022/03/20 10:27:00;;;;;;;22.10;14.73;;;;;;;6.94;57.89;102327.78;5977506;29;20055;-94
2022/03/20 10:30:10;;;;;;;22.08;13.25;;;;;;;7.10;57.58;102316.03;5969257;29;20054;-94
2022/03/20 10:33:17;;;;;;;26.50;15.00;;;;;;;7.19;56.87;102318.28;5971386;29;20564;-94
2022/03/20 10:36:23;;;;;;;22.58;13.38;;;;;;;7.37;55.59;102309.03;5974029;29;20050;-93
2022/03/20 10:39:27;;;;;;;24.50;13.82;;;;;;;7.45;54.05;102308.75;5956528;29;20047;-94
2022/03/20 10:42:29;;;;;;;21.15;13.77;;;;;;;7.51;52.79;102306.81;5951707;29;20060;-94
2022/03/20 10:45:30;;;;;;;22.17;13.93;;;;;;;7.61;52.50;102312.44;5979276;29;20046;-94
2022/03/20 10:48:47;;;;;;;23.50;14.35;;;;;;;7.71;52.63;102305.22;5957042;29;20042;-94
2022/03/20 10:52:11;;;;;;;22.85;14.77;;;;;;;7.77;52.28;102292.91;5973038;29;20043;-94
2022/03/20 10:55:13;;;;;;;23.77;13.40;;;;;;;7.92;51.87;102299.22;5970716;29;20129;-94
2022/03/20 10:58:24;;;;;;;20.38;13.27;;;;;;;8.06;52.95;102290.94;5972443;29;20048;-94
2022/03/20 11:01:37;;;;;;;19.70;13.25;;;;;;;8.20;51.55;102280.09;5971669;29;20046;-94
2022/03/20 11:04:45;;;;;;;19.20;12.68;;;;;;;8.28;51.60;102277.19;5973288;29;20122;-94
2022/03/20 11:07:53;;;;;;;24.40;13.55;;;;;;;8.33;53.32;102281.25;5972352;29;20092;-94
2022/03/20 11:11:02;;;;;;;21.35;13.73;;;;;;;8.40;51.37;102274.97;5965617;29;20055;-94
2022/03/20 11:14:25;;;;;;;19.63;12.95;;;;;;;8.54;51.01;102268.38;5977655;29;20050;-94
2022/03/20 11:17:53;;;;;;;21.27;12.90;;;;;;;8.73;49.24;102268.44;5979515;29;20121;-94
2022/03/20 11:21:09;;;;;;;21.40;13.10;;;;;;;8.82;50.46;102263.72;5970267;29;20055;-94
2022/03/20 11:24:17;;;;;;;23.42;12.90;;;;;;;8.91;50.19;102269.38;5950693;29;20071;-94
2022/03/20 11:27:30;;;;;;;22.08;14.02;;;;;;;8.98;48.88;102260.44;5955858;29;20051;-93
2022/03/20 11:30:39;;;;;;;21.80;13.18;;;;;;;8.99;50.11;102249.19;5954545;29;20051;-94
2022/03/20 11:34:08;;;;;;;21.00;12.73;;;;;;;9.08;48.64;102251.38;5975105;29;20046;-94
2022/03/20 11:37:16;;;;;;;22.63;14.15;;;;;;;9.22;49.28;102251.59;5969295;29;20046;-94
2022/03/20 11:40:43;;;;;;;18.67;11.98;;;;;;;9.41;49.18;102240.41;5977386;29;20055;-94
2022/03/20 11:44:22;;;;;;;16.90;11.98;;;;;;;9.65;48.50;102233.25;5898576;29;20046;-94
2022/03/20 11:47:31;;;;;;;22.00;11.65;;;;;;;9.79;45.39;102238.63;5950373;29;20095;-92
2022/03/20 11:50:51;;;;;;;18.52;12.38;;;;;;;9.88;46.24;102229.56;5975828;29;20042;-92
2022/03/20 11:54:12;;;;;;;17.95;12.90;;;;;;;10.01;45.78;102234.97;5959308;29;20499;-92
2022/03/20 11:57:36;;;;;;;19.08;12.90;;;;;;;10.10;45.75;102235.34;5969007;29;20054;-92
2022/03/20 12:00:44;;;;;;;18.98;12.40;;;;;;;10.18;46.22;102226.38;5960511;29;20065;-92
2022/03/20 12:04:21;;;;;;;19.40;12.40;;;;;;;10.22;45.54;102209.78;5952057;29;20054;-92
2022/03/20 12:07:41;;;;;;;18.73;12.93;;;;;;;10.29;45.92;102221.53;5975511;29;20050;-92
2022/03/20 12:11:03;;;;;;;22.65;12.25;;;;;;;10.40;45.47;102215.81;5965268;29;20051;-91
2022/03/20 12:14:28;;;;;;;18.50;11.82;;;;;;;10.54;44.60;102216.78;5974569;29;20035;-92
2022/03/20 12:17:56;;;;;;;16.58;11.80;;;;;;;10.64;45.67;102213.72;5951040;29;20562;-92
2022/03/20 12:21:11;;;;;;;19.70;13.05;;;;;;;10.73;43.34;102203.72;5964997;29;20050;-92
2022/03/20 12:24:53;;;;;;;20.05;12.63;;;;;;;10.84;44.33;102200.56;5949617;29;20054;-92
2022/03/20 12:27:58;;;;;;;17.85;12.90;;;;;;;10.91;43.23;102188.94;5973063;29;20039;-92
2022/03/20 12:31:01;;;;;;;21.92;12.05;;;;;;;10.93;42.45;102205.25;5953080;29;20048;-92
2022/03/20 12:34:29;;;;;;;18.17;11.13;;;;;;;10.96;41.80;102194.72;5976112;29;20218;-92
2022/03/20 12:40:56;;;;;;;18.38;11.25;;;;;;;11.06;42.15;102189.03;5974804;29;20489;-92
2022/03/20 12:44:09;;;;;;;16.73;11.43;;;;;;;11.12;42.08;102179.16;5963644;29;20111;-93
2022/03/20 12:47:20;;;;;;;18.77;11.65;;;;;;;11.19;43.46;102177.91;5953790;29;20043;-92
2022/03/20 12:50:47;;;;;;;16.45;11.82;;;;;;;11.33;43.22;102163.34;5949383;29;20042;-92
2022/03/20 12:53:52;;;;;;;16.77;11.73;;;;;;;11.38;41.79;102167.38;5969855;29;20469;-92
2022/03/20 12:56:56;;;;;;;17.75;12.30;;;;;;;11.40;41.30;102173.31;5969896;29;20176;-92
2022/03/20 13:00:13;;;;;;;16.58;11.50;;;;;;;11.54;40.57;102171.69;5956873;29;20050;-92
2022/03/20 13:03:32;;;;;;;17.23;11.95;;;;;;;11.57;40.93;102161.94;5967306;29;20054;-92
2022/03/20 13:06:36;;;;;;;21.00;11.93;;;;;;;11.64;40.08;102150.31;5973664;29;20184;-92
2022/03/20 13:09:43;;;;;;;17.80;12.10;;;;;;;11.64;41.01;102152.91;5960431;29;20437;-92
2022/03/20 13:13:12;;;;;;;19.80;12.60;;;;;;;11.74;40.68;102139.41;5971893;29;20051;-92
2022/03/20 13:16:17;;;;;;;16.45;12.25;;;;;;;11.89;41.45;102135.13;5954545;29;20503;-92
2022/03/20 13:19:37;;;;;;;17.98;11.73;;;;;;;11.93;40.47;102137.44;5978237;29;20043;-92
2022/03/20 13:22:39;;;;;;;15.90;11.75;;;;;;;12.07;41.58;102137.47;5965900;29;20054;-92
2022/03/20 13:25:46;;;;;;;18.88;12.35;;;;;;;12.04;41.72;102129.03;5975794;29;20057;-92
2022/03/20 13:28:54;;;;;;;18.27;12.95;;;;;;;12.06;41.07;102133.19;5971058;29;20517;-92
2022/03/20 13:32:13;;;;;;;17.95;12.10;;;;;;;12.16;41.66;102120.50;5968359;29;20054;-92
2022/03/20 13:35:25;;;;;;;16.70;11.88;;;;;;;12.34;41.49;102126.34;5963999;29;20074;-92
2022/03/20 13:38:35;;;;;;;19.63;12.38;;;;;;;12.41;40.85;102124.22;5975416;29;20058;-92
2022/03/20 13:41:44;;;;;;;15.73;11.30;;;;;;;12.48;41.29;102117.72;5961346;29;20054;-92
2022/03/20 13:44:50;;;;;;;17.20;11.38;;;;;;;12.44;39.65;102126.63;5956996;29;20171;-92
2022/03/20 13:47:52;;;;;;;16.05;11.82;;;;;;;12.45;40.34;102110.97;5980293;29;20045;-92
2022/03/20 13:51:00;;;;;;;19.48;11.88;;;;;;;12.50;40.67;102119.28;5970489;29;20057;-92
2022/03/20 13:54:18;;;;;;;16.55;11.35;;;;;;;12.58;40.63;102116.22;5976501;29;20055;-92
2022/03/20 13:57:20;;;;;;;16.65;11.07;;;;;;;12.62;39.36;102107.31;5983359;29;20684;-92
2022/03/20 14:00:32;;;;;;;20.23;11.57;;;;;;;12.76;39.49;102106.44;5977293;29;20050;-92
2022/03/20 14:03:34;;;;;;;18.20;11.75;;;;;;;12.84;39.98;102096.38;5966004;29;20047;-92
2022/03/20 14:06:38;;;;;;;16.48;11.20;;;;;;;12.89;39.39;102091.75;5966042;29;20177;-92
2022/03/20 14:09:40;;;;;;;15.20;11.07;;;;;;;13.01;40.10;102097.09;5981831;29;20054;-92
2022/03/20 14:12:46;;;;;;;16.58;12.05;;;;;;;13.03;39.08;102103.84;5979366;29;20155;-92
2022/03/20 14:16:06;;;;;;;19.17;11.05;;;;;;;12.91;37.89;102107.25;5962617;29;20042;-93
2022/03/20 14:19:12;;;;;;;;;;;;;;;12.99;38.36;102104.97;5976028;29;20046;-92
2022/03/20 14:22:21;;;;;;;16.92;11.05;;;;;;;13.04;39.33;102115.09;5975786;29;20016;-92
2022/03/20 14:25:46;;;;;;;18.25;11.60;;;;;;;13.17;37.26;102115.13;5972704;29;20057;-92
2022/03/20 14:29:10;;;;;;;15.18;11.02;;;;;;;13.26;38.64;102104.13;5982539;29;20123;-92
2022/03/20 14:39:30;;;;;;;17.42;11.73;;;;;;;13.35;36.90;102099.19;5971698;29;20063;-92
2022/03/20 14:42:37;;;;;;;19.88;11.65;;;;;;;13.34;38.40;102102.75;5977510;29;20054;-92
2022/03/20 14:45:41;;;;;;;14.80;11.07;;;;;;;13.41;38.42;102087.56;5980641;29;20046;-92
2022/03/20 14:48:46;;;;;;;16.23;11.65;;;;;;;13.46;38.25;102087.25;5979467;29;20137;-92
2022/03/20 14:51:56;;;;;;;15.60;10.68;;;;;;;13.49;38.02;102077.50;5977822;29;20061;-92
2022/03/20 14:55:03;;;;;;;18.27;12.23;;;;;;;13.49;36.46;102084.44;5972285;29;20031;-92
2022/03/20 14:58:17;;;;;;;14.80;10.57;;;;;;;13.53;36.92;102083.31;5977589;29;20053;-92
2022/03/20 15:01:29;;;;;;;15.20;10.70;;;;;;;13.48;37.44;102083.63;5988042;29;20099;-92
2022/03/20 15:04:39;;;;;;;14.07;10.48;;;;;;;13.52;36.45;102081.66;5960314;29;20051;-92
2022/03/20 15:11:26;;;;;;;13.68;10.00;;;;;;;13.51;37.41;102074.78;5936653;30;20059;-92
2022/03/20 15:14:30;;;;;;;12.55;9.68;;;;;;;13.58;35.84;102076.88;5956872;29;20059;-92
2022/03/20 15:17:35;;;;;;;14.48;10.10;;;;;;;13.60;36.18;102073.34;5978954;29;20048;-92